Latest Coastal Weather Observations for Croker Island Airport

IDD60701

Issued at 3:25 pm CST Friday 28 November 2014 (issued every 10 minutes, with the page automatically refreshed every 10 minutes)

About coastal observations | Map of coastal stations | Coastal observations for NT | Marine services | Other Formats
Station Details ID: 014308 Name: CROKER ISLAND AIRPORT Lat: -11.16 Lon: 132.48 Height: 9.2 m
Data from the previous 72 hours. | See also: Recent months for locations in Northern Territory
Date/Time
CST
Temp

°C
Wind Pressure Rain
since 9am
mm
Weather Cloud Vis
km
Sea
Height
m
Swell
Dir
 
Speed
knots
Gust
knots
hPa Trend Height
m
Period
s
Dir
28/03:00pm 30.6 NNW 7 12 1006.4 - - - - - - - - -
28/02:30pm 31.1 N 8 12 1006.9 - - - - - - - - -
28/02:00pm 33.0 N 11 15 1007.3 - - - - - - - - -
28/01:30pm 33.5 N 10 14 1007.6 - - - - - - - - -
28/01:00pm 33.3 N 10 15 1008.1 - - - - - - - - -
28/12:30pm 32.5 N 9 13 1008.4 - - - - - - - - -
28/12:00pm 33.5 NNW 9 12 1008.9 - - - - - - - - -
28/11:30am 32.2 N 9 12 1009.3 - - - - - - - - -
28/11:00am 31.8 N 8 11 1009.5 - - - - - - - - -
28/10:30am 32.9 NNW 6 9 1009.9 - - - - - - - - -
28/10:00am 30.7 N 6 8 1009.9 - - - - - - - - -
28/09:30am 31.7 N 6 8 1010.0 - - - - - - - - -
28/09:00am 29.9 NNE 4 7 1010.1 - - - - - - - - -
28/08:30am 30.5 NNE 5 7 1010.1 - - - - - - - - -
28/08:00am 29.7 NNE 5 7 1009.9 - - - - - - - - -
28/07:30am 28.9 NNE 4 6 1009.5 - - - - - - - - -
28/07:00am 28.0 NE 2 4 1009.3 - - - - - - - - -
28/06:30am 27.4 NE 3 5 1009.1 - - - - - - - - -
28/06:00am 27.4 NE 4 5 1008.6 - - - - - - - - -
28/05:30am 27.4 NNE 4 7 1008.5 - - - - - - - - -
28/05:00am 26.5 NE 2 5 1008.2 - - - - - - - - -
28/04:30am 26.6 NE 2 2 1008.2 - - - - - - - - -
28/04:00am 26.7 E 2 2 1008.0 - - - - - - - - -
28/03:30am 27.2 ENE 2 4 1008.0 - - - - - - - - -
28/03:00am 27.3 ENE 2 3 1007.8 - - - - - - - - -
28/02:30am 27.7 NNE 4 6 1007.7 - - - - - - - - -
28/02:00am 27.8 NE 4 8 1007.8 - - - - - - - - -
28/01:30am 27.9 NE 5 8 1008.0 - - - - - - - - -
28/01:00am 28.1 NE 6 8 1008.2 - - - - - - - - -
28/12:30am 28.0 NE 5 8 1008.5 - - - - - - - - -
28/12:00am 28.2 NE 6 8 1008.5 - - - - - - - - -
 
Date/Time
CST
Temp

°C
Wind Pressure Rain
since 9am
mm
Weather Cloud Vis
km
Sea
Height
m
Swell
Dir
 
Speed
knots
Gust
knots
hPa Trend Height
m
Period
s
Dir
27/11:30pm 28.3 NE 6 9 1008.8 - - - - - - - - -
27/11:00pm 28.4 NE 7 12 1009.0 - - - - - - - - -
27/10:30pm 28.6 NE 7 13 1009.0 - - - - - - - - -
27/10:00pm 28.6 NE 6 10 1008.9 - - - - - - - - -
27/09:30pm 28.5 NE 6 10 1008.8 - - - - - - - - -
27/09:00pm 28.6 NE 5 9 1008.6 - - - - - - - - -
27/08:30pm 28.7 NE 7 11 1008.2 - - - - - - - - -
27/08:00pm 28.8 NE 7 12 1008.2 - - - - - - - - -
27/07:30pm 28.9 NE 9 14 1007.9 - - - - - - - - -
27/07:00pm 29.1 NE 9 15 1007.9 - - - - - - - - -
27/06:30pm 29.4 NE 11 15 1007.5 - - - - - - - - -
27/06:00pm 29.9 NE 12 17 1007.0 - - - - - - - - -
27/05:30pm 30.6 NE 12 17 1006.7 - - - - - - - - -
27/05:00pm 31.7 NE 11 17 1006.6 - - - - - - - - -
27/04:30pm 32.1 NE 10 16 1006.6 - - - - - - - - -
27/04:00pm 32.3 ENE 11 16 1006.4 - - - - - - - - -
27/03:30pm 32.8 ENE 11 16 1006.4 - - - - - - - - -
27/03:00pm 33.9 NE 11 16 1006.7 - - - - - - - - -
27/02:30pm 34.8 E 12 17 1007.2 - - - - - - - - -
27/02:00pm 34.4 ENE 12 20 1007.5 - - - - - - - - -
27/01:30pm 35.0 E 11 17 1007.7 - - - - - - - - -
27/01:00pm 34.6 ENE 11 17 1008.0 - - - - - - - - -
27/12:30pm 34.7 E 10 16 1008.4 - - - - - - - - -
27/12:00pm 34.7 E 12 17 1008.7 - - - - - - - - -
27/11:30am 34.6 E 10 19 1009.1 - - - - - - - - -
27/11:00am 34.3 ENE 10 17 1009.4 - - - - - - - - -
27/10:30am 32.9 ENE 10 16 1009.7 - - - - - - - - -
27/10:00am 33.2 E 9 15 1009.8 - - - - - - - - -
27/09:30am 32.7 ENE 10 15 1009.6 - - - - - - - - -
27/09:00am 32.2 ENE 9 12 1009.4 - - - - - - - - -
27/08:30am 30.5 ENE 8 12 1009.2 - - - - - - - - -
27/08:00am 30.9 ENE 9 13 1009.0 - - - - - - - - -
27/07:30am 29.3 ENE 5 7 1008.7 - - - - - - - - -
27/07:00am 27.8 NE 4 5 1008.6 - - - - - - - - -
27/06:30am 26.7 ENE 4 5 1008.3 - - - - - - - - -
27/06:00am 26.6 ENE 3 5 1007.9 - - - - - - - - -
27/05:30am 26.4 ENE 4 5 1007.6 - - - - - - - - -
27/05:00am 25.9 ENE 2 2 1007.3 - - - - - - - - -
27/04:30am 26.2 NE 2 2 1007.1 - - - - - - - - -
27/04:00am 26.5 E 2 3 1007.0 - - - - - - - - -
27/03:30am 27.0 ENE 3 4 1007.0 - - - - - - - - -
27/03:00am 27.1 NE 3 5 1007.1 - - - - - - - - -
27/02:30am 27.2 NE 2 4 1007.3 - - - - - - - - -
27/02:00am 27.1 NE 3 4 1007.4 - - - - - - - - -
27/01:30am 26.7 ENE 3 3 1007.6 - - - - - - - - -
27/01:00am 26.4 NE 1 2 1007.8 - - - - - - - - -
27/12:30am 26.7 NE 2 2 1008.2 - - - - - - - - -
27/12:00am 27.2 E 2 3 1008.4 - - - - - - - - -
 
Date/Time
CST
Temp

°C
Wind Pressure Rain
since 9am
mm
Weather Cloud Vis
km
Sea
Height
m
Swell
Dir
 
Speed
knots
Gust
knots
hPa Trend Height
m
Period
s
Dir
26/11:30pm 27.7 ENE 4 6 1008.4 - - - - - - - - -
26/11:00pm 27.8 NE 5 7 1008.6 - - - - - - - - -
26/10:30pm 27.6 NE 5 7 1008.7 - - - - - - - - -
26/10:00pm 27.7 ENE 4 6 1008.5 - - - - - - - - -
26/09:30pm 27.8 ENE 5 7 1008.3 - - - - - - - - -
26/09:00pm 27.9 ENE 4 6 1007.9 - - - - - - - - -
26/08:30pm 28.0 ENE 5 6 1007.3 - - - - - - - - -
26/08:00pm 28.3 ENE 5 7 1006.9 - - - - - - - - -
26/07:30pm 28.6 ENE 6 8 1006.4 - - - - - - - - -
26/07:00pm 28.9 ENE 6 9 1006.2 - - - - - - - - -
26/06:30pm 29.2 ENE 7 10 1006.2 - - - - - - - - -
26/06:00pm 29.9 ENE 8 12 1006.4 - - - - - - - - -
26/05:30pm 30.5 NE 9 12 1006.2 - - - - - - - - -
26/05:00pm 31.4 NE 9 14 1005.7 - - - - - - - - -
26/04:30pm 32.0 NE 8 12 1005.7 - - - - - - - - -
26/04:00pm 32.9 ENE 10 16 1005.7 - - - - - - - - -
26/03:30pm 34.1 ENE 10 16 1005.7 - - - - - - - - -
26/03:00pm 33.8 E 12 18 1006.1 - - - - - - - - -
26/02:30pm 33.4 ENE 11 16 1006.0 - - - - - - - - -
26/02:00pm 34.0 ENE 14 22 1006.1 - - - - - - - - -
26/01:30pm 34.6 NE 12 19 1006.4 - - - - - - - - -
26/01:00pm 35.0 E 11 19 1007.0 - - - - - - - - -
26/12:30pm 34.6 ENE 12 17 1007.5 - - - - - - - - -
26/12:00pm 33.1 NE 9 13 1008.0 - - - - - - - - -
26/11:30am 31.9 ESE 5 8 1008.4 - - - - - - - - -
26/11:00am 30.7 E 10 15 1008.9 - - - - - - - - -
26/10:30am 33.3 ENE 8 13 1009.0 - - - - - - - - -
26/10:00am 34.0 ENE 7 14 1008.8 - - - - - - - - -
26/09:30am 33.1 E 6 11 1008.9 - - - - - - - - -
26/09:00am 32.4 ENE 5 8 1008.6 - - - - - - - - -
26/08:30am 31.7 ENE 3 7 1008.4 - - - - - - - - -
26/08:00am 30.6 E 3 5 1008.3 - - - - - - - - -
26/07:30am 29.1 ENE 1 2 1008.0 - - - - - - - - -
26/07:00am 26.9 ENE 1 2 1007.8 - - - - - - - - -
26/06:30am 25.7 ENE 2 3 1007.6 - - - - - - - - -
26/06:00am 25.1 CALM 0 1 1007.1 - - - - - - - - -
26/05:30am 25.4 ENE 2 2 1007.0 - - - - - - - - -
26/05:00am 25.3 ENE 2 2 1006.8 - - - - - - - - -
26/04:30am 25.3 ENE 1 2 1006.6 - - - - - - - - -
26/04:00am 25.7 ENE 2 2 1006.6 - - - - - - - - -
26/03:30am 25.6 E 2 2 1006.5 - - - - - - - - -
26/03:00am 25.7 E 1 2 1006.6 - - - - - - - - -
26/02:30am 25.9 E 1 2 1006.7 - - - - - - - - -
26/02:00am 26.2 E 2 2 1007.0 - - - - - - - - -
26/01:30am 26.2 E 2 2 1007.2 - - - - - - - - -
26/01:00am 26.5 E 2 3 1007.5 - - - - - - - - -
26/12:30am 26.8 E 2 3 1007.7 - - - - - - - - -
26/12:00am 26.6 E 2 2 1008.1 - - - - - - - - -
 
Date/Time
CST
Temp

°C
Wind Pressure Rain
since 9am
mm
Weather Cloud Vis
km
Sea
Height
m
Swell
Dir
 
Speed
knots
Gust
knots
hPa Trend Height
m
Period
s
Dir
25/11:30pm 27.1 ENE 2 3 1007.9 - - - - - - - - -
25/11:00pm 27.3 NE 3 4 1008.0 - - - - - - - - -
25/10:30pm 27.3 ENE 2 3 1007.9 - - - - - - - - -
25/10:00pm 27.9 ENE 3 3 1007.8 - - - - - - - - -
25/09:30pm 28.1 ENE 3 5 1007.6 - - - - - - - - -
25/09:00pm 28.4 NNE 3 5 1007.6 - - - - - - - - -
25/08:30pm 28.5 NE 4 7 1007.6 - - - - - - - - -
25/08:00pm 28.7 NNE 4 7 1007.3 - - - - - - - - -
25/07:30pm 28.8 NE 4 6 1007.1 - - - - - - - - -
25/07:00pm 29.2 NE 5 8 1007.2 - - - - - - - - -
25/06:30pm 29.5 N 5 8 1006.9 - - - - - - - - -
25/06:00pm 30.4 N 6 9 1007.0 - - - - - - - - -
25/05:30pm 31.1 N 7 10 1006.8 - - - - - - - - -
25/05:00pm 31.9 N 8 12 1006.3 - - - - - - - - -
25/04:30pm 33.1 N 8 13 1006.1 - - - - - - - - -
25/04:00pm 33.5 N 8 11 1006.2 - - - - - - - - -
25/03:30pm 33.5 NNE 8 12 1006.2 - - - - - - - - -

Other Formats:

Comma delimited format used in spreadsheet applications
http://www.bom.gov.au/fwo/IDD60701/IDD60701.94108.axf

JavaScript Object Notation format (JSON) in row-major order
http://www.bom.gov.au/fwo/IDD60701/IDD60701.94108.json